createdAt,value
2022-11-02T00:00:37.477Z,6.09
2022-11-02T00:03:06.784Z,6.06
2022-11-02T00:05:36.194Z,6.14
2022-11-02T00:08:05.800Z,6.16
2022-11-02T00:10:35.238Z,5.97
2022-11-02T00:13:06.066Z,6.18
2022-11-02T00:15:37.269Z,6.28
2022-11-02T00:18:09.751Z,6.27
2022-11-02T00:20:39.659Z,6.14
2022-11-02T00:23:10.911Z,6.13
2022-11-02T00:25:42.468Z,6.12
2022-11-02T00:28:12.792Z,6.19
2022-11-02T00:30:41.934Z,5.91
2022-11-02T00:33:11.093Z,5.91
2022-11-02T00:35:40.780Z,5.68
2022-11-02T00:38:09.875Z,5.66
2022-11-02T00:40:38.814Z,5.68
2022-11-02T00:43:08.386Z,5.61
2022-11-02T00:45:41.302Z,5.73
2022-11-02T00:48:10.003Z,5.78
2022-11-02T00:50:39.085Z,5.79
2022-11-02T00:53:07.937Z,5.73
2022-11-02T00:55:37.020Z,5.42
2022-11-02T00:58:06.428Z,5.64
2022-11-02T01:00:35.438Z,5.45
2022-11-02T01:03:06.456Z,5.36
2022-11-02T01:05:35.459Z,5.20
2022-11-02T01:08:05.121Z,5.12
2022-11-02T01:10:34.978Z,5.23
2022-11-02T01:13:03.881Z,5.35
2022-11-02T01:15:33.737Z,5.22
2022-11-02T01:18:03.074Z,5.32
2022-11-02T01:20:33.762Z,5.67
2022-11-02T01:23:02.726Z,5.57
2022-11-02T01:25:31.586Z,5.55
2022-11-02T01:28:00.516Z,5.42
2022-11-02T01:30:29.443Z,5.42
2022-11-02T01:32:58.357Z,5.29
2022-11-02T01:35:28.611Z,4.93
2022-11-02T01:37:58.808Z,5.33
2022-11-02T01:40:27.662Z,5.13
2022-11-02T01:42:57.342Z,5.14
2022-11-02T01:45:26.215Z,5.06
2022-11-02T01:47:56.077Z,5.11
2022-11-02T01:50:28.649Z,5.42
2022-11-02T01:53:01.073Z,5.31
2022-11-02T01:55:33.962Z,5.24
2022-11-02T01:58:07.807Z,5.36
2022-11-02T02:00:38.816Z,5.21
2022-11-02T02:03:10.709Z,5.24
2022-11-02T02:05:43.722Z,5.08
2022-11-02T02:08:18.780Z,5.29
2022-11-02T02:10:47.591Z,5.33
2022-11-02T02:13:19.442Z,5.16
2022-11-02T02:15:57.051Z,5.22
2022-11-02T02:18:34.164Z,5.38
2022-11-02T02:21:21.264Z,5.32
2022-11-02T02:24:22.058Z,5.43
2022-11-02T02:27:10.819Z,5.31
2022-11-02T02:29:53.653Z,4.86
2022-11-02T02:32:29.951Z,5.33
2022-11-02T02:35:08.828Z,5.18
2022-11-02T02:37:45.214Z,4.81
2022-11-02T02:40:18.787Z,5.14
2022-11-02T02:42:49.824Z,5.09
2022-11-02T02:45:27.321Z,5.02
2022-11-02T02:48:02.358Z,4.94
2022-11-02T02:50:38.737Z,4.85
2022-11-02T02:53:09.661Z,4.34
2022-11-02T02:55:45.046Z,4.83
2022-11-02T02:58:19.840Z,4.88
2022-11-02T03:00:53.267Z,4.64
2022-11-02T03:03:27.375Z,4.62
2022-11-02T03:06:06.072Z,4.82
2022-11-02T03:08:39.709Z,4.65
2022-11-02T03:11:14.632Z,4.76
2022-11-02T03:14:00.173Z,4.34
2022-11-02T03:16:44.004Z,4.71
2022-11-02T03:19:24.857Z,4.78
2022-11-02T03:22:02.121Z,4.77
2022-11-02T03:24:37.346Z,4.47
2022-11-02T03:27:17.473Z,4.38
2022-11-02T03:29:54.777Z,4.59
2022-11-02T03:32:32.922Z,4.62
2022-11-02T03:35:06.907Z,4.60
2022-11-02T03:37:40.591Z,4.55
2022-11-02T03:40:17.442Z,4.41
2022-11-02T03:42:48.380Z,4.50
2022-11-02T03:45:20.439Z,4.77
2022-11-02T03:47:56.044Z,4.78
2022-11-02T03:50:27.828Z,4.82
2022-11-02T03:53:00.377Z,4.70
2022-11-02T03:55:34.593Z,4.63
2022-11-02T03:58:04.463Z,4.90
2022-11-02T04:00:36.216Z,4.70
2022-11-02T04:03:13.447Z,5.02
2022-11-02T04:05:46.264Z,5.03
2022-11-02T04:08:35.465Z,4.97
2022-11-02T04:11:25.788Z,5.25
2022-11-02T04:14:16.398Z,5.18
2022-11-02T04:17:11.057Z,5.12
2022-11-02T04:19:45.445Z,5.51
2022-11-02T04:22:35.953Z,5.06
2022-11-02T04:25:19.507Z,5.39
2022-11-02T04:27:57.613Z,5.47
2022-11-02T04:30:32.282Z,5.31
2022-11-02T04:33:20.389Z,5.33
2022-11-02T04:36:00.863Z,5.05
2022-11-02T04:38:41.810Z,5.31
2022-11-02T04:41:45.568Z,5.19
2022-11-02T04:44:18.581Z,4.92
2022-11-02T04:46:58.814Z,5.21
2022-11-02T04:49:31.776Z,4.88
2022-11-02T04:52:02.840Z,5.05
2022-11-02T04:54:34.866Z,4.94
2022-11-02T04:57:06.768Z,5.02
2022-11-02T04:59:35.956Z,4.79
2022-11-02T05:02:05.488Z,4.98
2022-11-02T05:04:35.613Z,5.11
2022-11-02T05:07:07.803Z,5.00
2022-11-02T05:09:38.745Z,4.86
2022-11-02T05:12:08.303Z,4.80
2022-11-02T05:14:37.398Z,3.40
2022-11-02T05:17:06.489Z,4.75
2022-11-02T05:19:37.691Z,4.20
2022-11-02T05:22:09.735Z,4.43
2022-11-02T05:24:38.615Z,4.78
2022-11-02T05:27:11.849Z,4.76
2022-11-02T05:29:41.636Z,4.71
2022-11-02T05:32:11.175Z,4.75
2022-11-02T05:34:42.102Z,4.75
2022-11-02T05:37:14.483Z,4.77
2022-11-02T05:39:47.860Z,4.48
2022-11-02T05:42:20.759Z,4.91
2022-11-02T05:44:50.131Z,5.00
2022-11-02T05:47:19.233Z,5.22
2022-11-02T05:49:49.989Z,5.28
2022-11-02T05:52:23.117Z,5.32
2022-11-02T05:54:54.704Z,5.44
2022-11-02T05:57:23.797Z,5.45
2022-11-02T05:59:52.788Z,3.70
2022-11-02T06:02:23.405Z,5.41
2022-11-02T06:04:54.492Z,5.67
2022-11-02T06:07:27.770Z,5.66
2022-11-02T06:09:57.020Z,5.86
2022-11-02T06:12:25.902Z,5.97
2022-11-02T06:14:55.241Z,5.84
2022-11-02T06:17:24.439Z,6.05
2022-11-02T06:19:53.348Z,6.08
2022-11-02T06:22:22.703Z,5.71
2022-11-02T06:24:53.438Z,6.22
2022-11-02T06:27:22.670Z,6.11
2022-11-02T06:29:52.108Z,6.15
2022-11-02T06:32:21.098Z,6.38
2022-11-02T06:34:50.237Z,5.93
2022-11-02T06:37:19.163Z,6.59
2022-11-02T06:39:48.268Z,6.42
2022-11-02T06:42:18.493Z,6.72
2022-11-02T06:44:47.482Z,6.90
2022-11-02T06:47:16.577Z,6.97
2022-11-02T06:49:45.675Z,7.06
2022-11-02T06:52:15.058Z,7.19
2022-11-02T06:54:44.116Z,6.95
2022-11-02T06:57:13.045Z,7.28
2022-11-02T06:59:43.214Z,7.44
2022-11-02T07:02:12.293Z,7.60
2022-11-02T07:04:44.264Z,7.51
2022-11-02T07:07:13.311Z,7.54
2022-11-02T07:09:42.547Z,7.80
2022-11-02T07:12:11.632Z,7.99
2022-11-02T07:14:40.907Z,8.01
2022-11-02T07:17:11.648Z,8.07
2022-11-02T07:19:40.564Z,8.18
2022-11-02T07:22:09.517Z,8.28
2022-11-02T07:24:40.730Z,8.19
2022-11-02T07:27:09.688Z,8.28
2022-11-02T07:29:38.567Z,8.39
2022-11-02T07:32:09.088Z,8.21
2022-11-02T07:34:39.409Z,8.06
2022-11-02T07:37:08.293Z,8.23
2022-11-02T07:39:37.239Z,8.30
2022-11-02T07:42:07.261Z,8.57
2022-11-02T07:44:41.977Z,8.82
2022-11-02T07:47:11.361Z,8.69
2022-11-02T07:49:42.314Z,8.91
2022-11-02T07:52:11.957Z,8.32
2022-11-02T07:54:44.569Z,8.85
2022-11-02T07:57:14.107Z,9.22
2022-11-02T07:59:43.791Z,9.29
2022-11-02T08:02:14.865Z,9.26
2022-11-02T08:04:46.503Z,9.31
2022-11-02T08:07:16.310Z,9.16
2022-11-02T08:09:46.013Z,9.57
2022-11-02T08:12:15.521Z,9.67
2022-11-02T08:14:44.720Z,9.69
2022-11-02T08:17:13.974Z,9.80
2022-11-02T08:19:43.337Z,9.63
2022-11-02T08:22:13.948Z,9.40
2022-11-02T08:24:43.333Z,9.90
2022-11-02T08:27:12.611Z,9.80
2022-11-02T08:29:44.377Z,9.73
2022-11-02T08:32:14.402Z,9.75
2022-11-02T08:34:45.670Z,10.31
2022-11-02T08:37:16.285Z,10.40
2022-11-02T08:39:45.315Z,10.43
2022-11-02T08:42:16.576Z,10.57
2022-11-02T08:44:45.664Z,10.45
2022-11-02T08:47:15.984Z,10.53
2022-11-02T08:49:47.095Z,10.67
2022-11-02T08:52:17.718Z,10.68
2022-11-02T08:54:47.028Z,10.69
2022-11-02T08:57:16.463Z,10.95
2022-11-02T08:59:45.637Z,10.38
2022-11-02T09:02:14.812Z,11.09
2022-11-02T09:04:44.228Z,11.48
2022-11-02T09:07:17.136Z,11.28
2022-11-02T09:09:46.293Z,11.29
2022-11-02T09:12:15.967Z,11.42
2022-11-02T09:14:45.351Z,11.50
2022-11-02T09:17:14.587Z,11.65
2022-11-02T09:19:44.026Z,11.40
2022-11-02T09:22:13.230Z,11.45
2022-11-02T09:24:43.593Z,11.54
2022-11-02T09:27:12.538Z,11.54
2022-11-02T09:29:41.552Z,11.82
2022-11-02T09:32:11.041Z,11.88
2022-11-02T09:34:40.366Z,12.07
2022-11-02T09:37:09.337Z,11.70
2022-11-02T09:39:38.745Z,11.84
2022-11-02T09:42:20.385Z,11.81
2022-11-02T09:44:52.516Z,11.63
2022-11-02T09:50:18.927Z,11.79
2022-11-02T09:52:58.811Z,11.98
2022-11-02T09:55:31.907Z,12.36
2022-11-02T09:58:07.486Z,11.80
2022-11-02T10:00:42.032Z,12.81
2022-11-02T10:03:21.920Z,14.86
2022-11-02T10:05:58.424Z,15.67
2022-11-02T10:08:39.546Z,16.52
2022-11-02T10:11:20.542Z,16.02
2022-11-02T10:13:57.059Z,16.84
2022-11-02T10:16:38.310Z,18.05
2022-11-02T10:19:14.872Z,18.47
2022-11-02T10:21:48.273Z,19.60
2022-11-02T10:24:25.825Z,18.43
2022-11-02T10:26:58.322Z,18.10
2022-11-02T10:29:41.442Z,20.48
2022-11-02T10:32:12.710Z,19.24
2022-11-02T10:34:42.942Z,18.57
2022-11-02T10:38:14.998Z,19.40
2022-11-02T10:41:08.799Z,17.13
2022-11-02T10:43:54.362Z,17.43
2022-11-02T10:46:42.527Z,18.65
2022-11-02T10:49:18.278Z,17.55
2022-11-02T10:51:47.579Z,21.36
2022-11-02T10:54:21.663Z,21.46
2022-11-02T10:57:09.211Z,22.76
2022-11-02T10:59:39.201Z,23.59
2022-11-02T11:02:17.099Z,22.55
2022-11-02T11:04:47.433Z,22.04
2022-11-02T11:07:30.436Z,23.32
2022-11-02T11:10:00.047Z,22.56
2022-11-02T11:12:34.716Z,22.89
2022-11-02T11:20:49.698Z,22.53
2022-11-02T11:23:21.740Z,22.66
2022-11-02T11:26:00.200Z,23.70
2022-11-02T11:28:32.084Z,24.96
2022-11-02T11:31:09.045Z,24.67
2022-11-02T11:33:49.639Z,25.77
2022-11-02T11:36:28.403Z,22.62
2022-11-02T11:39:01.463Z,21.20
2022-11-02T11:41:32.866Z,20.47
2022-11-02T11:44:03.733Z,21.17
2022-11-02T11:46:44.031Z,20.72
2022-11-02T11:49:36.033Z,19.30
2022-11-02T11:52:20.541Z,20.41
2022-11-02T11:55:00.969Z,19.43
2022-11-02T11:57:33.003Z,18.34
2022-11-02T12:00:05.275Z,17.76
2022-11-02T12:02:43.843Z,17.74
2022-11-02T12:05:16.707Z,16.60
2022-11-02T12:08:16.219Z,16.36
2022-11-02T12:11:03.836Z,16.15
2022-11-02T12:13:51.956Z,15.65
2022-11-02T12:16:31.167Z,15.55
2022-11-02T12:19:23.749Z,15.67
2022-11-02T12:22:04.074Z,15.38
2022-11-02T12:25:05.558Z,15.51
2022-11-02T12:27:43.677Z,15.26
2022-11-02T12:30:16.644Z,15.36
2022-11-02T12:32:59.885Z,14.76
2022-11-02T12:36:05.341Z,14.84
2022-11-02T12:38:52.943Z,14.18
2022-11-02T12:42:09.993Z,13.73
2022-11-02T12:44:50.205Z,14.25
2022-11-02T12:47:30.174Z,13.77
2022-11-02T12:50:10.087Z,15.37
2022-11-02T12:52:53.657Z,14.19
2022-11-02T12:55:38.177Z,14.61
2022-11-02T12:58:19.580Z,15.02
2022-11-02T13:00:57.028Z,14.46
2022-11-02T13:03:37.309Z,14.87
2022-11-02T13:06:14.531Z,14.29
2022-11-02T13:08:50.293Z,14.41
2022-11-02T13:11:26.168Z,14.12
2022-11-02T13:13:58.970Z,14.11
2022-11-02T13:16:40.862Z,14.11
2022-11-02T13:19:19.487Z,14.06
2022-11-02T13:21:54.110Z,13.75
2022-11-02T13:24:30.662Z,13.78
2022-11-02T13:29:59.287Z,13.43
2022-11-02T13:32:34.362Z,13.33
2022-11-02T13:35:14.169Z,13.06
2022-11-02T13:37:48.104Z,12.94
2022-11-02T13:40:23.069Z,12.83
2022-11-02T13:43:30.189Z,12.32
2022-11-02T13:46:13.075Z,12.21
2022-11-02T13:48:52.632Z,12.18
2022-11-02T13:51:29.132Z,11.97
2022-11-02T13:54:04.968Z,11.80
2022-11-02T13:56:37.676Z,11.37
2022-11-02T13:59:09.311Z,11.26
2022-11-02T14:01:42.607Z,11.55
2022-11-02T14:04:14.741Z,11.49
2022-11-02T14:06:51.214Z,11.45
2022-11-02T14:09:32.110Z,11.47
2022-11-02T14:12:27.374Z,11.12
2022-11-02T14:16:03.726Z,11.02
2022-11-02T14:18:34.664Z,11.26
2022-11-02T14:21:36.693Z,11.23
2022-11-02T14:24:48.383Z,11.02
2022-11-02T14:27:31.150Z,10.63
2022-11-02T14:30:00.682Z,10.76
2022-11-02T14:32:41.735Z,10.32
2022-11-02T14:35:46.985Z,10.63
2022-11-02T14:38:40.003Z,10.50
2022-11-02T14:41:32.199Z,10.49
2022-11-02T14:44:23.889Z,10.44
2022-11-02T14:46:57.677Z,10.24
2022-11-02T14:49:29.806Z,10.33
2022-11-02T14:52:04.676Z,10.37
2022-11-02T14:54:37.733Z,10.26
2022-11-02T14:57:16.495Z,10.31
2022-11-02T14:59:49.864Z,9.73
2022-11-02T15:02:24.818Z,10.22
2022-11-02T15:04:56.330Z,10.24
2022-11-02T15:07:34.872Z,10.32
2022-11-02T15:10:07.207Z,10.14
2022-11-02T15:12:41.280Z,10.39
2022-11-02T15:15:32.970Z,10.38
2022-11-02T15:18:33.706Z,10.20
2022-11-02T15:21:25.524Z,10.32
2022-11-02T15:24:15.505Z,9.77
2022-11-02T15:26:51.014Z,10.16
2022-11-02T15:29:36.556Z,10.24
2022-11-02T15:32:10.047Z,10.27
2022-11-02T15:34:43.830Z,10.14
2022-11-02T15:37:18.428Z,10.11
2022-11-02T15:39:53.548Z,10.27
2022-11-02T15:42:33.532Z,10.35
2022-11-02T15:45:49.430Z,10.23
2022-11-02T15:48:37.006Z,10.30
2022-11-02T15:51:20.661Z,10.00
2022-11-02T15:54:13.558Z,9.92
2022-11-02T15:57:02.758Z,10.10
2022-11-02T15:59:55.210Z,10.36
2022-11-02T16:02:27.977Z,10.40
2022-11-02T16:05:00.194Z,10.21
2022-11-02T16:07:38.287Z,10.46
2022-11-02T16:10:25.663Z,10.54
2022-11-02T16:13:00.444Z,10.60
2022-11-02T16:15:30.580Z,10.47
2022-11-02T16:17:59.751Z,10.49
2022-11-02T16:20:31.052Z,10.58
2022-11-02T16:23:02.092Z,10.57
2022-11-02T16:25:39.911Z,10.61
2022-11-02T16:28:20.396Z,10.29
2022-11-02T16:31:12.737Z,10.48
2022-11-02T16:33:49.573Z,10.44
2022-11-02T16:36:21.190Z,10.63
2022-11-02T16:38:59.591Z,10.52
2022-11-02T16:41:31.281Z,10.37
2022-11-02T16:44:03.808Z,10.58
2022-11-02T16:46:43.351Z,10.59
2022-11-02T16:49:18.721Z,10.52
2022-11-02T16:51:53.178Z,10.52
2022-11-02T16:54:41.292Z,10.26
2022-11-02T16:57:19.788Z,10.21
2022-11-02T16:59:54.810Z,10.50
2022-11-02T17:02:36.212Z,10.08
2022-11-02T17:05:07.761Z,10.47
2022-11-02T17:07:42.413Z,10.49
2022-11-02T17:10:22.224Z,10.46
2022-11-02T17:12:51.586Z,10.30
2022-11-02T17:15:25.180Z,10.56
2022-11-02T17:18:16.720Z,10.53
2022-11-02T17:20:46.207Z,10.35
2022-11-02T17:23:33.894Z,10.46
2022-11-02T17:26:42.165Z,10.56
2022-11-02T17:29:32.289Z,10.54
2022-11-02T17:32:05.225Z,10.60
2022-11-02T17:34:35.781Z,10.65
2022-11-02T17:37:06.791Z,10.62
2022-11-02T17:39:36.244Z,10.20
2022-11-02T17:42:23.137Z,10.65
2022-11-02T17:44:52.650Z,10.46
2022-11-02T17:47:23.468Z,10.56
2022-11-02T17:49:52.684Z,10.26
2022-11-02T17:52:21.833Z,10.60
2022-11-02T17:54:51.285Z,10.12
2022-11-02T17:57:21.170Z,10.51
2022-11-02T17:59:51.746Z,10.33
2022-11-02T18:02:22.472Z,10.49
2022-11-02T18:04:51.709Z,10.21
2022-11-02T18:07:21.026Z,10.39
2022-11-02T18:09:49.953Z,10.38
2022-11-02T18:12:21.975Z,9.78
2022-11-02T18:14:51.766Z,9.56
2022-11-02T18:17:27.149Z,10.27
2022-11-02T18:19:58.045Z,10.33
2022-11-02T18:22:28.023Z,10.25
2022-11-02T18:25:04.779Z,10.21
2022-11-02T18:27:33.864Z,10.16
2022-11-02T18:30:03.241Z,9.73
2022-11-02T18:32:56.190Z,9.85
2022-11-02T18:35:26.561Z,9.63
2022-11-02T18:38:01.715Z,9.03
2022-11-02T18:40:42.968Z,9.40
2022-11-02T18:43:16.750Z,10.22
2022-11-02T18:45:45.965Z,10.29
2022-11-02T18:48:17.145Z,10.26
2022-11-02T18:50:46.580Z,10.20
2022-11-02T18:56:31.957Z,9.41
2022-11-02T18:59:01.459Z,8.97
2022-11-02T19:01:37.979Z,9.99
2022-11-02T19:04:16.948Z,8.62
2022-11-02T19:07:13.838Z,9.09
2022-11-02T19:09:46.896Z,9.77
2022-11-02T19:12:20.310Z,9.82
2022-11-02T19:14:51.674Z,9.70
2022-11-02T19:17:20.793Z,9.93
2022-11-02T19:19:54.967Z,9.92
2022-11-02T19:22:28.861Z,9.90
2022-11-02T19:24:58.225Z,9.54
2022-11-02T19:27:27.756Z,9.80
2022-11-02T19:29:56.937Z,9.63
2022-11-02T19:32:29.165Z,9.74
2022-11-02T19:35:00.647Z,9.69
2022-11-02T19:37:34.302Z,9.75
2022-11-02T19:40:04.426Z,9.58
2022-11-02T19:42:33.661Z,9.80
2022-11-02T19:45:04.405Z,9.76
2022-11-02T19:47:34.068Z,9.77
2022-11-02T19:50:04.465Z,9.67
2022-11-02T19:52:41.495Z,9.75
2022-11-02T19:55:12.980Z,9.22
2022-11-02T19:57:43.346Z,9.56
2022-11-02T20:00:14.853Z,9.10
2022-11-02T20:02:48.838Z,9.43
2022-11-02T20:05:22.079Z,9.39
2022-11-02T20:07:55.244Z,9.12
2022-11-02T20:10:32.731Z,9.02
2022-11-02T20:13:07.363Z,9.27
2022-11-02T20:15:45.013Z,9.21
2022-11-02T20:18:19.448Z,8.65
2022-11-02T20:20:52.578Z,8.99
2022-11-02T20:23:45.845Z,8.76
2022-11-02T20:26:17.325Z,9.07
2022-11-02T20:28:53.155Z,9.14
2022-11-02T20:31:24.130Z,9.03
2022-11-02T20:33:57.116Z,8.73
2022-11-02T20:36:30.549Z,9.05
2022-11-02T20:39:04.674Z,9.06
2022-11-02T20:41:36.079Z,9.12
2022-11-02T20:44:07.227Z,9.07
2022-11-02T20:46:41.451Z,8.34
2022-11-02T20:49:22.324Z,9.26
2022-11-02T20:52:03.836Z,9.08
2022-11-02T20:54:33.289Z,9.14
2022-11-02T20:57:08.695Z,9.24
2022-11-02T20:59:38.159Z,9.26
2022-11-02T21:02:08.486Z,9.28
2022-11-02T21:04:59.612Z,9.23
2022-11-02T21:07:30.138Z,9.36
2022-11-02T21:10:01.961Z,9.36
2022-11-02T21:12:50.550Z,9.39
2022-11-02T21:15:21.859Z,9.23
2022-11-02T21:17:53.409Z,9.03
2022-11-02T21:20:34.092Z,9.01
2022-11-02T21:23:06.475Z,9.31
2022-11-02T21:25:36.569Z,9.27
2022-11-02T21:28:06.101Z,9.11
2022-11-02T21:30:37.157Z,8.93
2022-11-02T21:33:15.835Z,9.44
2022-11-02T21:35:52.633Z,9.05
2022-11-02T21:38:26.982Z,8.22
2022-11-02T21:41:00.138Z,7.95
2022-11-02T21:43:29.385Z,8.95
2022-11-02T21:45:59.910Z,9.45
2022-11-02T21:48:39.228Z,9.52
2022-11-02T21:51:12.178Z,9.41
2022-11-02T21:53:44.032Z,9.52
2022-11-02T21:56:15.888Z,9.24
2022-11-02T21:58:46.511Z,9.40
2022-11-02T22:01:38.506Z,9.30
2022-11-02T22:04:08.311Z,9.21
2022-11-02T22:06:37.969Z,9.23
2022-11-02T22:09:09.775Z,9.33
2022-11-02T22:11:38.723Z,9.06
2022-11-02T22:14:08.122Z,8.97
2022-11-02T22:16:38.901Z,9.16
2022-11-02T22:19:09.565Z,8.92
2022-11-02T22:21:40.991Z,9.13
2022-11-02T22:24:13.461Z,8.81
2022-11-02T22:26:42.525Z,8.98
2022-11-02T22:29:12.256Z,9.06
2022-11-02T22:31:42.002Z,8.88
2022-11-02T22:34:13.343Z,8.96
2022-11-02T22:36:44.545Z,8.84
2022-11-02T22:39:15.928Z,9.03
2022-11-02T22:41:46.681Z,8.74
2022-11-02T22:44:17.514Z,9.10
2022-11-02T22:46:48.926Z,9.01
2022-11-02T22:49:19.949Z,8.80
2022-11-02T22:51:51.351Z,8.69
2022-11-02T22:54:21.826Z,8.63
2022-11-02T22:56:50.923Z,8.75
2022-11-02T22:59:20.951Z,8.79
2022-11-02T23:01:51.410Z,8.95
2022-11-02T23:04:20.746Z,8.91
2022-11-02T23:06:49.633Z,9.02
2022-11-02T23:09:18.546Z,8.99
2022-11-02T23:11:47.797Z,9.24
2022-11-02T23:14:21.265Z,9.21
2022-11-02T23:16:50.172Z,9.23
2022-11-02T23:19:30.993Z,8.77
2022-11-02T23:22:19.659Z,9.18
2022-11-02T23:25:07.998Z,9.28
2022-11-02T23:27:55.673Z,9.01
2022-11-02T23:30:42.317Z,9.19
2022-11-02T23:33:11.627Z,8.78
2022-11-02T23:35:58.258Z,9.18
2022-11-02T23:38:48.448Z,9.07
2022-11-02T23:41:18.244Z,9.20
2022-11-02T23:43:48.915Z,8.66
2022-11-02T23:46:18.913Z,8.98
2022-11-02T23:48:51.121Z,8.99
2022-11-02T23:51:40.537Z,8.42
2022-11-02T23:54:27.284Z,8.75
2022-11-02T23:56:56.681Z,9.20
2022-11-02T23:59:27.362Z,8.85
